Aviation Digital Data Service (ADDS)

Output produced by METARs form (1259 UTC 24 May 2019)
found at http://www.aviationweather.gov/metar/data/
 
TAF ZBTJ 240856Z 2412/2512 19004MPS 5000 HZ NSC TX35/2507Z TN24/2421Z